Time;durP1;ratioP1;P1;durP2;ratioP2;P2;SDS_P1;SDS_P2;PMS_P1;PMS_P2;Temp;Humidity;BMP_temperature;BMP_pressure;BME280_temperature;BME280_humidity;BME280_pressure;Samples;Min_cycle;Max_cycle;Signal;HPM_P1;HPM_P2
2024/02/04 00:01:58;;;;;;;1.73;1.07;;;8.70;99.90;;;;;;4984457;28;20703;-46
2024/02/04 00:04:27;;;;;;;2.07;1.30;;;8.70;99.90;;;;;;4989914;28;20532;-46
2024/02/04 00:06:55;;;;;;;1.80;1.20;;;8.70;99.90;;;;;;4985187;28;21078;-46
2024/02/04 00:09:23;;;;;;;2.10;1.27;;;8.70;99.90;;;;;;4987335;28;20446;-45
2024/02/04 00:11:52;;;;;;;1.87;1.20;;;8.70;99.90;;;;;;4981790;28;20472;-46
2024/02/04 00:14:22;;;;;;;1.77;1.20;;;8.70;99.90;;;;;;4983882;28;20483;-46
2024/02/04 00:16:50;;;;;;;2.10;1.60;;;8.70;99.90;;;;;;4981127;28;20479;-47
2024/02/04 00:19:18;;;;;;;1.70;1.03;;;8.70;99.90;;;;;;4988463;28;20924;-46
2024/02/04 00:21:46;;;;;;;1.80;1.10;;;8.70;99.90;;;;;;4988821;28;20473;-45
2024/02/04 00:24:15;;;;;;;1.60;0.93;;;8.70;99.90;;;;;;4970288;28;20447;-46
2024/02/04 00:26:43;;;;;;;2.77;1.33;;;8.70;99.90;;;;;;4988830;28;20515;-45
2024/02/04 00:29:11;;;;;;;2.20;1.40;;;8.70;99.90;;;;;;4990937;28;20484;-45
2024/02/04 00:31:41;;;;;;;2.17;1.40;;;8.70;99.90;;;;;;4988904;28;21038;-45
2024/02/04 00:34:09;;;;;;;2.77;1.63;;;8.70;99.90;;;;;;4989659;28;20453;-45
2024/02/04 00:36:37;;;;;;;1.60;1.30;;;8.70;99.90;;;;;;4985889;28;20466;-45
2024/02/04 00:39:07;;;;;;;1.90;1.20;;;8.70;99.90;;;;;;4972171;28;20480;-45
2024/02/04 00:41:35;;;;;;;2.20;1.43;;;8.70;99.90;;;;;;4970479;28;20506;-45
2024/02/04 00:44:04;;;;;;;1.67;0.93;;;8.70;99.90;;;;;;4988603;28;20641;-44
2024/02/04 00:46:32;;;;;;;1.50;0.80;;;8.70;99.90;;;;;;4978954;28;20455;-44
2024/02/04 00:49:02;;;;;;;2.00;1.30;;;8.70;99.90;;;;;;4973350;28;20452;-46
2024/02/04 00:51:30;;;;;;;2.60;1.50;;;8.70;99.90;;;;;;4972209;28;20458;-46
2024/02/04 00:53:59;;;;;;;1.60;1.10;;;8.70;99.90;;;;;;4989508;28;20484;-46
2024/02/04 00:56:27;;;;;;;1.80;1.00;;;8.70;99.90;;;;;;4980166;28;20450;-45
2024/02/04 00:58:55;;;;;;;1.27;0.87;;;8.70;99.90;;;;;;4970058;28;20532;-46
2024/02/04 01:01:24;;;;;;;1.73;1.37;;;8.70;99.90;;;;;;4981075;28;20999;-45
2024/02/04 01:03:52;;;;;;;1.60;1.20;;;8.70;99.90;;;;;;4967619;28;21162;-46
2024/02/04 01:06:22;;;;;;;1.67;1.03;;;8.70;99.90;;;;;;4986532;28;20430;-46
2024/02/04 01:08:50;;;;;;;1.60;1.00;;;8.70;99.90;;;;;;4987263;28;20441;-45
2024/02/04 01:11:18;;;;;;;1.77;1.10;;;8.70;99.90;;;;;;4985060;28;20520;-45
2024/02/04 01:13:46;;;;;;;1.60;1.07;;;8.70;99.90;;;;;;4987815;28;20546;-45
2024/02/04 01:16:14;;;;;;;1.70;1.00;;;8.70;99.90;;;;;;4967464;28;20445;-45
2024/02/04 01:18:43;;;;;;;1.80;0.90;;;8.70;99.90;;;;;;4987419;28;20945;-47
2024/02/04 01:21:11;;;;;;;2.67;1.70;;;8.70;99.90;;;;;;4970507;28;20446;-46
2024/02/04 01:23:41;;;;;;;1.60;1.27;;;8.70;99.90;;;;;;4971438;28;20903;-47
2024/02/04 01:26:09;;;;;;;2.03;1.17;;;8.70;99.90;;;;;;4971894;28;20539;-46
2024/02/04 01:28:37;;;;;;;2.20;1.10;;;8.70;99.90;;;;;;4971545;28;20812;-47
2024/02/04 01:31:06;;;;;;;1.60;1.03;;;8.70;99.90;;;;;;4967782;28;20460;-47
2024/02/04 01:33:34;;;;;;;2.70;1.03;;;8.70;99.90;;;;;;4969402;28;20553;-46
2024/02/04 01:36:03;;;;;;;1.50;0.90;;;8.70;99.90;;;;;;4985506;28;20437;-48
2024/02/04 01:38:31;;;;;;;1.63;0.80;;;8.70;99.90;;;;;;4989173;28;20469;-47
2024/02/04 01:41:00;;;;;;;1.40;0.80;;;8.70;99.90;;;;;;4984553;28;20496;-47
2024/02/04 01:43:29;;;;;;;1.53;1.13;;;8.70;99.90;;;;;;4988991;28;20462;-48
2024/02/04 01:45:57;;;;;;;1.50;1.10;;;8.70;99.90;;;;;;4968354;28;20963;-47
2024/02/04 01:48:26;;;;;;;1.50;1.00;;;8.70;99.90;;;;;;4985798;28;20470;-47
2024/02/04 01:50:57;;;;;;;1.70;1.10;;;8.70;99.90;;;;;;4970416;28;20464;-46
2024/02/04 01:53:28;;;;;;;1.50;1.00;;;8.70;99.90;;;;;;4989835;28;20473;-47
2024/02/04 01:55:56;;;;;;;1.67;0.90;;;8.70;99.90;;;;;;4966436;28;20477;-46
2024/02/04 01:58:25;;;;;;;1.40;1.10;;;8.70;99.90;;;;;;4967680;28;20469;-46
2024/02/04 02:00:54;;;;;;;1.30;0.70;;;8.70;99.90;;;;;;4983233;28;20461;-47
2024/02/04 02:03:23;;;;;;;1.40;0.80;;;8.70;99.90;;;;;;4968531;28;20458;-47
2024/02/04 02:05:52;;;;;;;1.57;0.83;;;8.70;99.90;;;;;;4987238;28;20449;-47
2024/02/04 02:08:21;;;;;;;1.80;0.90;;;8.70;99.90;;;;;;4983907;28;20581;-48
2024/02/04 02:10:50;;;;;;;1.20;0.80;;;8.70;99.90;;;;;;4990286;28;20884;-48
2024/02/04 02:13:24;;;;;;;1.43;0.87;;;8.70;99.90;;;;;;4967182;28;20458;-46
2024/02/04 02:15:59;;;;;;;1.53;0.87;;;8.70;99.90;;;;;;4985309;28;20474;-48
2024/02/04 02:18:36;;;;;;;1.60;1.20;;;8.70;99.90;;;;;;4991163;28;21102;-50
2024/02/04 02:21:28;;;;;;;1.30;0.77;;;8.70;99.90;;;;;;4988941;28;20429;-46
2024/02/04 02:24:07;;;;;;;1.40;0.80;;;8.70;99.90;;;;;;4963749;28;20466;-47
2024/02/04 02:26:38;;;;;;;1.40;0.87;;;8.70;99.90;;;;;;4975069;28;20998;-48
2024/02/04 02:29:08;;;;;;;1.10;0.63;;;8.70;99.90;;;;;;4993360;28;20434;-47
2024/02/04 02:31:36;;;;;;;1.53;1.07;;;8.70;99.90;;;;;;4989295;28;20460;-48
2024/02/04 02:34:16;;;;;;;1.60;0.83;;;8.70;99.90;;;;;;4992839;28;20469;-47
2024/02/04 02:37:17;;;;;;;1.37;0.87;;;8.70;99.90;;;;;;4973373;28;20473;-46
2024/02/04 02:39:50;;;;;;;1.53;0.97;;;8.70;99.90;;;;;;4974531;28;20443;-45
2024/02/04 02:42:23;;;;;;;1.80;0.90;;;8.70;99.90;;;;;;4967919;28;20466;-45
2024/02/04 02:44:54;;;;;;;1.63;0.90;;;8.70;99.90;;;;;;4992803;28;20430;-45
2024/02/04 02:47:24;;;;;;;1.50;1.07;;;8.80;99.90;;;;;;4982609;28;20467;-45
2024/02/04 02:49:54;;;;;;;1.40;0.80;;;8.70;99.90;;;;;;4975214;28;20500;-45
2024/02/04 02:52:23;;;;;;;2.40;1.20;;;8.70;99.90;;;;;;4988194;28;20470;-45
2024/02/04 02:54:51;;;;;;;2.13;0.77;;;8.80;99.90;;;;;;4989024;28;21176;-45
2024/02/04 02:57:20;;;;;;;1.30;0.50;;;8.80;99.90;;;;;;4985499;28;20472;-45
2024/02/04 02:59:48;;;;;;;1.40;0.80;;;8.80;99.90;;;;;;4991512;28;20467;-45
2024/02/04 03:02:16;;;;;;;1.23;0.83;;;8.70;99.90;;;;;;4990387;28;20469;-45
2024/02/04 03:04:44;;;;;;;1.50;1.03;;;8.70;99.90;;;;;;4991916;28;20448;-45
2024/02/04 03:07:13;;;;;;;1.70;1.00;;;8.80;99.90;;;;;;4974729;28;20883;-45
2024/02/04 03:09:41;;;;;;;1.30;0.90;;;8.70;99.90;;;;;;4988531;28;20462;-45
2024/02/04 03:12:09;;;;;;;1.17;0.67;;;8.80;99.90;;;;;;4988733;28;20500;-46
2024/02/04 03:14:38;;;;;;;2.57;0.90;;;8.80;99.90;;;;;;4974826;28;20479;-45
2024/02/04 03:17:07;;;;;;;1.10;0.60;;;8.80;99.90;;;;;;4972048;28;20477;-46
2024/02/04 03:19:35;;;;;;;1.60;0.80;;;8.80;99.90;;;;;;4992044;28;20505;-45
2024/02/04 03:22:03;;;;;;;1.40;0.83;;;8.70;99.90;;;;;;4973957;28;20473;-45
2024/02/04 03:24:32;;;;;;;1.50;0.90;;;8.70;99.90;;;;;;4991422;28;20508;-45
2024/02/04 03:27:01;;;;;;;1.73;1.03;;;8.80;99.90;;;;;;4986830;28;20838;-46
2024/02/04 03:29:30;;;;;;;1.60;0.80;;;8.80;99.90;;;;;;4973813;28;20477;-47
2024/02/04 03:31:59;;;;;;;1.50;1.00;;;8.80;99.90;;;;;;4972794;28;20458;-46
2024/02/04 03:34:27;;;;;;;1.40;1.03;;;8.80;99.90;;;;;;4991824;28;20437;-47
2024/02/04 03:36:55;;;;;;;1.60;1.00;;;8.80;99.90;;;;;;4987902;28;20580;-47
2024/02/04 03:39:24;;;;;;;1.40;0.70;;;8.80;99.90;;;;;;4969967;28;20528;-45
2024/02/04 03:41:52;;;;;;;1.30;0.80;;;8.80;99.90;;;;;;4971227;28;20505;-46
2024/02/04 03:44:21;;;;;;;1.33;0.60;;;8.80;99.90;;;;;;4969732;28;20438;-46
2024/02/04 03:46:50;;;;;;;1.40;0.80;;;8.70;99.90;;;;;;4968631;28;20466;-46
2024/02/04 03:49:20;;;;;;;1.47;0.90;;;8.80;99.90;;;;;;4974340;28;20958;-46
2024/02/04 03:51:49;;;;;;;1.30;0.77;;;8.80;99.90;;;;;;4988213;28;20504;-46
2024/02/04 03:54:18;;;;;;;1.30;0.70;;;8.80;99.90;;;;;;4973722;28;20855;-49
2024/02/04 03:56:47;;;;;;;1.30;0.77;;;8.70;99.90;;;;;;4970879;28;20462;-48
2024/02/04 03:59:15;;;;;;;1.30;0.80;;;8.80;99.90;;;;;;4989301;28;20438;-46
2024/02/04 04:01:48;;;;;;;1.20;0.70;;;8.80;99.90;;;;;;4989574;28;20553;-47
2024/02/04 04:04:16;;;;;;;1.70;0.90;;;8.80;99.90;;;;;;4991306;28;20446;-46
2024/02/04 04:06:48;;;;;;;1.30;0.80;;;8.80;99.90;;;;;;4990321;28;20457;-45
2024/02/04 04:09:16;;;;;;;1.90;0.83;;;8.70;99.90;;;;;;4987671;28;20437;-47
2024/02/04 04:11:44;;;;;;;1.40;0.77;;;8.80;99.90;;;;;;4989943;28;20470;-45
2024/02/04 04:14:13;;;;;;;1.37;0.80;;;8.80;99.90;;;;;;4973604;28;20462;-45
2024/02/04 04:16:41;;;;;;;1.30;0.70;;;8.80;99.90;;;;;;4988412;28;20484;-45
2024/02/04 04:19:09;;;;;;;1.33;0.90;;;8.70;99.90;;;;;;4973379;28;20440;-45
2024/02/04 04:21:40;;;;;;;1.70;0.80;;;8.80;99.90;;;;;;4990247;28;20991;-46
2024/02/04 04:24:09;;;;;;;1.57;0.80;;;8.80;99.90;;;;;;4987007;28;20547;-45
2024/02/04 04:26:37;;;;;;;1.10;0.60;;;8.80;99.90;;;;;;4986409;28;20461;-45
2024/02/04 04:29:06;;;;;;;1.37;0.73;;;8.80;99.90;;;;;;4990446;28;20433;-45
2024/02/04 04:31:34;;;;;;;1.30;0.80;;;8.80;99.90;;;;;;4986111;28;20855;-47
2024/02/04 04:34:02;;;;;;;1.20;0.60;;;8.80;99.90;;;;;;4991036;28;20493;-46
2024/02/04 04:36:30;;;;;;;1.63;0.77;;;8.80;99.90;;;;;;4989025;28;20463;-46
2024/02/04 04:38:58;;;;;;;1.30;0.80;;;8.80;99.90;;;;;;4986758;28;20430;-46
2024/02/04 04:41:28;;;;;;;1.57;0.80;;;8.80;99.90;;;;;;4972250;28;20570;-46
2024/02/04 04:43:56;;;;;;;1.20;0.80;;;8.80;99.90;;;;;;4986606;28;20459;-47
2024/02/04 04:46:24;;;;;;;1.30;0.80;;;8.80;99.90;;;;;;4988235;28;20447;-45
2024/02/04 04:48:52;;;;;;;2.33;0.60;;;8.70;99.90;;;;;;4989025;28;20508;-45
2024/02/04 04:51:21;;;;;;;1.77;1.00;;;8.80;99.90;;;;;;4984275;28;20534;-45
2024/02/04 04:53:49;;;;;;;1.20;0.70;;;8.80;99.90;;;;;;4988529;28;20444;-45
2024/02/04 04:56:17;;;;;;;1.40;0.90;;;8.80;99.90;;;;;;4987116;28;20454;-45
2024/02/04 04:58:48;;;;;;;1.40;1.03;;;8.80;99.90;;;;;;4988083;28;20443;-46
2024/02/04 05:01:16;;;;;;;1.60;1.00;;;8.80;99.90;;;;;;4982453;28;20458;-45
2024/02/04 05:03:45;;;;;;;2.00;0.90;;;8.80;99.90;;;;;;4987552;28;20481;-45
2024/02/04 05:06:14;;;;;;;1.43;1.00;;;8.80;99.90;;;;;;4984996;28;20936;-45
2024/02/04 05:08:42;;;;;;;1.40;0.83;;;8.80;99.90;;;;;;4986097;28;20597;-46
2024/02/04 05:11:10;;;;;;;1.40;0.70;;;8.80;99.90;;;;;;4984031;28;20450;-45
2024/02/04 05:13:40;;;;;;;1.23;0.70;;;8.80;99.90;;;;;;4989305;28;20466;-45
2024/02/04 05:16:09;;;;;;;1.60;0.70;;;8.80;99.90;;;;;;4983555;28;20620;-45
2024/02/04 05:18:38;;;;;;;1.50;0.80;;;8.80;99.90;;;;;;4989468;28;20514;-44
2024/02/04 05:21:06;;;;;;;1.20;0.70;;;8.80;99.90;;;;;;4989283;28;20441;-46
2024/02/04 05:23:34;;;;;;;1.77;1.13;;;8.80;99.90;;;;;;4984103;28;20980;-45
2024/02/04 05:26:04;;;;;;;2.57;1.17;;;8.80;99.90;;;;;;4984070;28;20516;-45
2024/02/04 05:28:33;;;;;;;1.30;0.70;;;8.80;99.90;;;;;;4986933;28;20558;-46
2024/02/04 05:31:02;;;;;;;1.60;1.17;;;8.80;99.90;;;;;;4988082;28;20430;-46
2024/02/04 05:33:32;;;;;;;1.43;0.97;;;8.80;99.90;;;;;;4989120;28;20900;-45
2024/02/04 05:36:00;;;;;;;2.60;0.80;;;8.80;99.90;;;;;;4989176;28;20508;-46
2024/02/04 05:38:28;;;;;;;1.33;0.83;;;8.80;99.90;;;;;;4989580;28;20490;-45
2024/02/04 05:40:56;;;;;;;1.37;0.80;;;8.80;99.90;;;;;;4986753;28;20450;-44
2024/02/04 05:43:25;;;;;;;1.27;0.70;;;8.80;99.90;;;;;;4990013;28;21020;-45
2024/02/04 05:45:54;;;;;;;1.50;0.80;;;8.80;99.90;;;;;;4985173;28;20441;-45
2024/02/04 05:48:22;;;;;;;1.50;0.90;;;8.80;99.90;;;;;;4989612;28;20453;-45
2024/02/04 05:50:52;;;;;;;1.63;0.70;;;8.80;99.90;;;;;;4994044;28;20469;-45
2024/02/04 05:53:20;;;;;;;1.40;1.00;;;8.80;99.90;;;;;;4993067;28;20564;-46
2024/02/04 05:55:48;;;;;;;1.20;0.70;;;8.80;99.90;;;;;;4989256;28;20841;-45
2024/02/04 05:58:16;;;;;;;1.53;0.80;;;8.80;99.90;;;;;;4993180;28;20464;-45
2024/02/04 06:00:44;;;;;;;1.80;0.70;;;8.80;99.90;;;;;;4993956;28;20437;-45
2024/02/04 06:03:14;;;;;;;2.30;0.80;;;8.80;99.90;;;;;;4991194;28;20560;-44
2024/02/04 06:05:42;;;;;;;1.30;0.70;;;8.80;99.90;;;;;;4993311;28;20800;-45
2024/02/04 06:08:11;;;;;;;1.10;0.60;;;8.80;99.90;;;;;;4992867;28;20473;-45
2024/02/04 06:10:39;;;;;;;1.80;0.90;;;8.80;99.90;;;;;;4991783;28;21312;-46
2024/02/04 06:13:08;;;;;;;1.70;1.10;;;8.80;99.90;;;;;;4992388;28;21038;-45
2024/02/04 06:15:36;;;;;;;1.20;0.73;;;8.80;99.90;;;;;;4992983;28;20437;-45
2024/02/04 06:18:05;;;;;;;1.40;0.80;;;8.80;99.90;;;;;;4990625;28;20547;-45
2024/02/04 06:20:33;;;;;;;1.50;1.00;;;8.80;99.90;;;;;;4992698;28;20453;-46
2024/02/04 06:23:01;;;;;;;1.50;0.97;;;8.80;99.90;;;;;;4990886;28;20991;-45
2024/02/04 06:25:30;;;;;;;1.33;0.83;;;8.80;99.90;;;;;;4989859;28;20442;-44
2024/02/04 06:27:58;;;;;;;1.30;0.70;;;8.80;99.90;;;;;;4992530;28;20552;-45
2024/02/04 06:30:26;;;;;;;1.43;0.83;;;8.80;99.90;;;;;;4985939;28;20426;-46
2024/02/04 06:32:56;;;;;;;1.50;1.00;;;8.80;99.90;;;;;;4987811;28;20461;-46
2024/02/04 06:35:24;;;;;;;1.37;0.80;;;8.80;99.90;;;;;;4985657;28;20431;-45
2024/02/04 06:37:53;;;;;;;1.40;0.80;;;8.80;99.90;;;;;;4984611;28;20466;-45
2024/02/04 06:40:21;;;;;;;2.17;1.20;;;8.80;99.90;;;;;;4989726;28;20785;-45
2024/02/04 06:42:51;;;;;;;1.60;1.00;;;8.80;99.90;;;;;;4992400;28;20473;-45
2024/02/04 06:45:19;;;;;;;1.13;0.60;;;8.80;99.90;;;;;;4987767;28;20426;-46
2024/02/04 06:47:47;;;;;;;1.40;0.80;;;8.80;99.90;;;;;;4989943;28;20884;-46
2024/02/04 06:50:16;;;;;;;1.63;0.97;;;8.80;99.90;;;;;;4989589;28;20458;-46
2024/02/04 06:52:45;;;;;;;1.50;0.60;;;8.80;99.90;;;;;;4991940;28;20465;-47
2024/02/04 06:55:13;;;;;;;1.73;0.70;;;8.80;99.90;;;;;;4990634;28;20848;-45
2024/02/04 06:57:42;;;;;;;1.47;0.80;;;8.80;99.90;;;;;;4992193;28;20488;-47
2024/02/04 07:00:13;;;;;;;1.20;0.70;;;8.80;99.90;;;;;;4990148;28;20449;-48
2024/02/04 07:02:40;;;;;;;1.17;0.60;;;8.80;99.90;;;;;;4985700;28;20485;-46
2024/02/04 07:05:10;;;;;;;1.50;0.90;;;8.80;99.90;;;;;;4990742;28;20521;-47
2024/02/04 07:07:38;;;;;;;1.20;0.70;;;8.80;99.90;;;;;;4990339;28;20460;-45
2024/02/04 07:10:07;;;;;;;1.83;0.80;;;8.80;99.90;;;;;;4988368;28;21223;-47
2024/02/04 07:12:35;;;;;;;1.30;0.60;;;8.80;99.90;;;;;;4991337;28;20544;-46
2024/02/04 07:15:04;;;;;;;1.43;0.70;;;8.80;99.90;;;;;;4986240;28;20453;-47
2024/02/04 07:17:34;;;;;;;1.20;0.70;;;8.80;99.90;;;;;;4985980;28;20520;-47
2024/02/04 07:20:03;;;;;;;1.53;0.70;;;8.80;99.90;;;;;;4986439;28;20447;-47
2024/02/04 07:22:33;;;;;;;1.33;0.70;;;8.80;99.90;;;;;;4984407;28;20477;-47
2024/02/04 07:25:05;;;;;;;1.40;0.60;;;8.80;99.90;;;;;;4991786;28;20517;-45
2024/02/04 07:27:33;;;;;;;1.20;0.60;;;8.80;99.90;;;;;;4988296;28;20983;-47
2024/02/04 07:30:03;;;;;;;1.33;0.80;;;8.80;99.90;;;;;;4988174;28;20805;-46
2024/02/04 07:32:31;;;;;;;1.20;0.60;;;8.80;99.90;;;;;;4986996;28;20520;-46
2024/02/04 07:35:01;;;;;;;1.13;0.63;;;8.80;99.90;;;;;;4991896;28;20946;-46
2024/02/04 07:37:30;;;;;;;1.23;0.70;;;8.80;99.90;;;;;;4991522;28;20561;-47
2024/02/04 07:39:58;;;;;;;1.30;0.60;;;8.80;99.90;;;;;;4986959;28;20998;-45
2024/02/04 07:42:27;;;;;;;1.20;0.60;;;8.80;99.90;;;;;;4982993;28;21065;-46
2024/02/04 07:44:55;;;;;;;1.70;0.73;;;8.80;99.90;;;;;;4983914;28;20517;-48
2024/02/04 07:47:23;;;;;;;1.30;0.70;;;8.80;99.90;;;;;;4986658;28;20461;-46
2024/02/04 07:49:51;;;;;;;1.43;0.80;;;8.80;99.90;;;;;;4991880;28;20444;-47
2024/02/04 07:52:25;;;;;;;1.30;0.60;;;8.80;99.90;;;;;;4986582;28;20502;-47
2024/02/04 07:54:54;;;;;;;1.30;0.70;;;8.80;99.90;;;;;;4981199;28;20459;-47
2024/02/04 07:57:25;;;;;;;1.40;0.90;;;8.80;99.90;;;;;;4988193;28;20482;-47
2024/02/04 07:59:55;;;;;;;1.10;0.50;;;8.80;99.90;;;;;;4987815;28;21021;-46
2024/02/04 08:02:23;;;;;;;2.70;0.60;;;8.80;99.90;;;;;;4986151;28;20478;-46
2024/02/04 08:04:51;;;;;;;1.33;0.60;;;8.80;99.90;;;;;;4985317;28;20808;-45
2024/02/04 08:07:21;;;;;;;1.40;0.77;;;8.80;99.90;;;;;;4990093;28;20712;-44
2024/02/04 08:09:52;;;;;;;1.20;0.70;;;8.80;99.90;;;;;;4990336;28;20557;-45
2024/02/04 08:12:20;;;;;;;1.23;0.60;;;8.80;99.90;;;;;;4969338;28;21109;-44
2024/02/04 08:14:49;;;;;;;1.40;0.67;;;8.80;99.90;;;;;;4990201;28;20681;-44
2024/02/04 08:17:17;;;;;;;1.43;0.70;;;8.80;99.90;;;;;;4987966;28;20477;-46
2024/02/04 08:19:45;;;;;;;1.10;0.50;;;8.80;99.90;;;;;;4991148;28;20433;-45
2024/02/04 08:22:14;;;;;;;1.43;0.50;;;8.80;99.90;;;;;;4990093;28;20497;-45
2024/02/04 08:24:43;;;;;;;1.60;1.10;;;8.80;99.90;;;;;;4987506;28;20451;-44
2024/02/04 08:27:12;;;;;;;1.27;0.80;;;8.80;99.90;;;;;;4987624;28;20465;-45
2024/02/04 08:29:40;;;;;;;1.20;0.70;;;8.80;99.90;;;;;;4991124;28;20440;-46
2024/02/04 08:32:12;;;;;;;1.60;0.80;;;8.80;99.90;;;;;;4987495;28;20470;-45
2024/02/04 08:34:41;;;;;;;1.30;0.80;;;8.80;99.90;;;;;;4989953;28;20901;-45
2024/02/04 08:37:10;;;;;;;1.10;0.50;;;8.80;99.90;;;;;;4990557;28;20469;-45
2024/02/04 08:39:38;;;;;;;1.10;0.60;;;8.80;99.90;;;;;;4988296;28;20489;-46
2024/02/04 08:42:08;;;;;;;1.20;0.70;;;8.80;99.90;;;;;;4985242;28;20501;-45
2024/02/04 08:44:36;;;;;;;1.20;0.60;;;8.90;99.90;;;;;;4990843;28;20432;-45
2024/02/04 08:47:12;;;;;;;1.10;0.60;;;8.80;99.90;;;;;;4968321;28;20573;-46
2024/02/04 08:49:40;;;;;;;1.33;0.80;;;8.80;99.90;;;;;;4989909;28;20467;-45
2024/02/04 08:52:09;;;;;;;1.30;0.60;;;8.90;99.90;;;;;;4989851;28;20458;-45
2024/02/04 08:54:37;;;;;;;0.90;0.60;;;8.90;99.90;;;;;;4982390;28;21198;-45
2024/02/04 08:57:05;;;;;;;1.20;0.70;;;9.10;99.90;;;;;;4980390;28;20528;-45
2024/02/04 08:59:35;;;;;;;2.40;0.70;;;9.20;99.90;;;;;;4981642;28;20471;-45
2024/02/04 09:02:04;;;;;;;1.93;0.63;;;9.20;99.90;;;;;;4976770;28;20467;-44
2024/02/04 09:04:40;;;;;;;1.30;0.60;;;9.10;99.90;;;;;;4987832;28;20438;-45
2024/02/04 09:07:09;;;;;;;1.00;0.50;;;9.10;99.90;;;;;;4988691;28;20832;-47
2024/02/04 09:09:37;;;;;;;1.30;0.60;;;9.10;99.90;;;;;;4986125;28;20903;-48
2024/02/04 09:12:06;;;;;;;1.20;0.70;;;9.10;99.90;;;;;;4981722;28;20466;-47
2024/02/04 09:14:35;;;;;;;1.20;0.50;;;9.10;99.90;;;;;;4976468;28;20538;-45
2024/02/04 09:17:06;;;;;;;1.10;0.47;;;9.00;99.90;;;;;;4985299;28;20470;-46
2024/02/04 09:19:38;;;;;;;1.20;0.50;;;9.10;99.90;;;;;;4971800;28;20482;-47
2024/02/04 09:22:14;;;;;;;2.50;0.63;;;9.10;99.90;;;;;;4978649;28;20465;-45
2024/02/04 09:24:44;;;;;;;1.20;0.50;;;9.10;99.90;;;;;;4984572;28;20935;-45
2024/02/04 09:27:12;;;;;;;1.30;0.67;;;9.20;99.90;;;;;;4978687;28;20529;-45
2024/02/04 09:29:42;;;;;;;1.83;0.40;;;9.20;99.90;;;;;;4976129;28;20794;-46
2024/02/04 09:32:10;;;;;;;0.90;0.40;;;9.10;99.90;;;;;;4985511;28;20469;-45
2024/02/04 09:34:40;;;;;;;1.37;0.47;;;9.10;99.90;;;;;;4981609;28;20472;-45
2024/02/04 09:37:09;;;;;;;1.07;0.40;;;9.10;99.90;;;;;;4970669;28;20991;-44
2024/02/04 09:39:42;;;;;;;1.00;0.47;;;9.10;99.90;;;;;;4983211;28;20568;-44
2024/02/04 09:42:20;;;;;;;2.20;0.80;;;9.10;99.90;;;;;;4982449;28;20454;-43
2024/02/04 09:44:53;;;;;;;1.30;0.63;;;9.20;99.90;;;;;;4985682;28;20445;-47
2024/02/04 09:47:27;;;;;;;1.60;0.73;;;9.20;99.90;;;;;;4977968;28;20470;-45
2024/02/04 09:50:01;;;;;;;1.40;0.70;;;9.30;99.90;;;;;;4986167;28;20441;-46
2024/02/04 09:52:31;;;;;;;1.40;0.70;;;9.30;99.90;;;;;;4974371;28;20470;-44
2024/02/04 09:55:01;;;;;;;1.30;0.70;;;9.30;99.90;;;;;;4982939;28;20868;-44
2024/02/04 09:57:31;;;;;;;2.67;1.10;;;9.40;99.90;;;;;;4982659;28;20541;-46
2024/02/04 10:00:08;;;;;;;6.20;1.00;;;9.30;99.90;;;;;;4977282;28;20481;-43
2024/02/04 10:02:42;;;;;;;1.20;0.70;;;9.30;99.90;;;;;;4983437;28;21063;-43
2024/02/04 10:05:13;;;;;;;1.10;0.60;;;9.40;99.90;;;;;;4979986;28;20902;-45
2024/02/04 10:07:47;;;;;;;8.40;2.00;;;9.50;99.90;;;;;;4963656;28;20466;-44
2024/02/04 10:10:15;;;;;;;7.10;0.83;;;9.40;99.90;;;;;;4963192;28;20720;-45
2024/02/04 10:12:44;;;;;;;7.33;0.70;;;9.40;99.90;;;;;;4982859;28;20492;-45
2024/02/04 10:15:15;;;;;;;6.47;1.23;;;9.30;99.90;;;;;;4985339;28;20440;-45
2024/02/04 10:17:46;;;;;;;1.30;0.80;;;9.30;99.90;;;;;;4979175;28;20474;-44
2024/02/04 10:20:14;;;;;;;3.13;0.97;;;9.30;99.90;;;;;;4980103;28;20466;-45
2024/02/04 10:22:49;;;;;;;2.90;0.80;;;9.20;99.90;;;;;;4977323;28;20562;-48
2024/02/04 10:25:21;;;;;;;1.50;0.70;;;9.20;99.90;;;;;;4979101;28;20813;-45
2024/02/04 10:27:50;;;;;;;2.17;0.70;;;9.20;99.90;;;;;;4984881;28;21063;-44
2024/02/04 10:30:21;;;;;;;2.27;0.80;;;9.20;99.90;;;;;;4991222;28;20867;-46
2024/02/04 10:32:52;;;;;;;3.20;0.80;;;9.20;99.90;;;;;;4988776;28;21092;-46
2024/02/04 10:35:23;;;;;;;1.30;0.57;;;9.20;99.90;;;;;;4984348;28;20519;-45
2024/02/04 10:37:52;;;;;;;2.20;0.60;;;9.20;99.90;;;;;;4988342;28;20553;-45
2024/02/04 10:40:24;;;;;;;2.27;0.70;;;9.20;99.90;;;;;;4992350;28;20461;-45
2024/02/04 10:42:57;;;;;;;2.97;0.73;;;9.20;99.90;;;;;;4991645;28;20462;-45
2024/02/04 10:45:30;;;;;;;3.63;0.90;;;9.20;99.90;;;;;;4987442;28;20494;-44
2024/02/04 10:48:02;;;;;;;1.67;0.80;;;9.20;99.90;;;;;;4963325;28;20466;-44
2024/02/04 10:50:33;;;;;;;1.73;0.73;;;9.20;99.90;;;;;;4992479;28;20449;-45
2024/02/04 10:53:07;;;;;;;2.33;0.93;;;9.20;99.90;;;;;;4990458;28;20477;-45
2024/02/04 10:55:41;;;;;;;1.60;0.60;;;9.20;99.90;;;;;;4990919;28;20440;-46
2024/02/04 10:58:12;;;;;;;1.10;0.50;;;9.20;99.90;;;;;;4991696;28;20831;-44
2024/02/04 11:00:42;;;;;;;1.80;0.63;;;9.30;99.90;;;;;;4989989;28;20509;-46
2024/02/04 11:03:14;;;;;;;2.97;0.80;;;9.30;99.90;;;;;;4966914;28;20481;-45
2024/02/04 11:05:47;;;;;;;1.53;1.07;;;9.30;99.90;;;;;;4979247;28;20435;-46
2024/02/04 11:08:15;;;;;;;1.70;0.80;;;9.20;99.90;;;;;;4978775;28;20569;-45
2024/02/04 11:10:43;;;;;;;1.90;0.60;;;9.30;99.90;;;;;;4983778;28;20430;-44
2024/02/04 11:13:16;;;;;;;1.20;0.60;;;9.30;99.90;;;;;;4985505;28;20467;-45
2024/02/04 11:15:48;;;;;;;2.10;0.70;;;9.30;99.90;;;;;;4987197;28;20521;-46
2024/02/04 11:18:43;;;;;;;2.83;0.70;;;9.40;99.90;;;;;;4987308;28;20457;-46
2024/02/04 11:21:29;;;;;;;1.00;0.50;;;9.40;99.90;;;;;;4989872;28;20437;-45
2024/02/04 11:24:15;;;;;;;3.00;0.70;;;9.30;99.90;;;;;;4987186;28;20461;-46
2024/02/04 11:26:44;;;;;;;1.27;0.50;;;9.30;99.90;;;;;;4988984;28;20986;-45
2024/02/04 11:29:13;;;;;;;1.00;0.50;;;9.30;99.90;;;;;;4977594;28;20522;-47
2024/02/04 11:31:43;;;;;;;3.73;0.50;;;9.30;99.90;;;;;;4984421;28;20505;-47
2024/02/04 11:34:12;;;;;;;1.20;0.50;;;9.30;99.90;;;;;;4983545;28;20473;-45
2024/02/04 11:36:41;;;;;;;1.27;0.50;;;9.30;99.90;;;;;;4965018;28;20551;-44
2024/02/04 11:39:14;;;;;;;2.20;0.70;;;9.30;99.90;;;;;;4983325;28;20475;-46
2024/02/04 11:41:47;;;;;;;1.13;0.50;;;9.30;99.90;;;;;;4983938;28;20467;-46
2024/02/04 11:44:22;;;;;;;1.30;0.50;;;9.30;99.90;;;;;;4988182;28;20474;-45
2024/02/04 11:46:53;;;;;;;2.03;0.60;;;9.30;99.90;;;;;;4986636;28;20470;-46
2024/02/04 11:49:27;;;;;;;1.20;0.53;;;9.30;99.90;;;;;;4971407;28;20453;-43
2024/02/04 11:51:56;;;;;;;1.60;0.60;;;9.30;99.90;;;;;;4970795;28;20469;-45
2024/02/04 11:54:26;;;;;;;1.57;0.70;;;9.30;99.90;;;;;;4990654;28;20433;-43
2024/02/04 11:56:56;;;;;;;1.20;0.40;;;9.30;99.90;;;;;;4985299;28;20471;-48
2024/02/04 11:59:26;;;;;;;1.53;0.50;;;9.30;99.90;;;;;;4986187;28;20956;-47
2024/02/04 12:01:57;;;;;;;2.77;1.07;;;9.30;99.90;;;;;;4982688;28;20477;-45
2024/02/04 12:04:29;;;;;;;1.70;0.87;;;9.30;99.90;;;;;;4980463;28;20434;-46
2024/02/04 12:06:57;;;;;;;1.10;0.40;;;9.30;99.90;;;;;;4979098;28;20838;-48
2024/02/04 12:09:27;;;;;;;1.03;0.50;;;9.20;99.90;;;;;;4987810;28;20454;-47
2024/02/04 12:11:56;;;;;;;1.10;0.50;;;9.20;99.90;;;;;;4985495;28;20899;-46
2024/02/04 12:14:25;;;;;;;1.30;0.57;;;9.30;99.90;;;;;;4989606;28;20434;-45
2024/02/04 12:16:59;;;;;;;1.17;0.40;;;9.20;99.90;;;;;;4980815;28;20987;-46
2024/02/04 12:19:27;;;;;;;1.00;0.40;;;9.20;99.90;;;;;;4986688;28;20525;-45
2024/02/04 12:21:56;;;;;;;1.23;0.50;;;9.20;99.90;;;;;;4983696;28;20471;-47
2024/02/04 12:24:25;;;;;;;1.33;0.60;;;9.20;99.90;;;;;;4979896;28;21090;-46
2024/02/04 12:26:57;;;;;;;1.33;0.60;;;9.20;99.90;;;;;;4985566;28;20570;-46
2024/02/04 12:29:26;;;;;;;1.10;0.50;;;9.20;99.90;;;;;;4987586;28;20435;-44
2024/02/04 12:32:00;;;;;;;1.77;0.40;;;9.20;99.90;;;;;;4979858;28;20565;-46
2024/02/04 12:34:28;;;;;;;1.30;0.87;;;9.20;99.90;;;;;;4990978;28;20900;-48
2024/02/04 12:37:00;;;;;;;1.20;0.50;;;9.20;99.90;;;;;;4985418;28;20466;-45
2024/02/04 12:39:32;;;;;;;1.93;0.80;;;9.20;99.90;;;;;;4957083;28;20791;-47
2024/02/04 12:42:01;;;;;;;1.00;0.53;;;9.20;99.90;;;;;;4986459;28;20461;-43
2024/02/04 12:44:29;;;;;;;1.07;0.50;;;9.20;99.90;;;;;;4980140;28;20808;-45
2024/02/04 12:46:59;;;;;;;1.30;0.60;;;9.20;99.90;;;;;;4987373;28;20461;-46
2024/02/04 12:49:28;;;;;;;2.70;0.70;;;9.20;99.90;;;;;;4987349;28;20964;-48
2024/02/04 12:52:05;;;;;;;1.00;0.40;;;9.20;99.90;;;;;;4988558;28;20472;-45
2024/02/04 12:54:42;;;;;;;1.20;0.70;;;9.20;99.90;;;;;;4987404;28;20438;-48
2024/02/04 12:57:12;;;;;;;1.00;0.50;;;9.10;99.90;;;;;;4986737;28;20469;-46
2024/02/04 12:59:40;;;;;;;1.00;0.60;;;9.10;99.90;;;;;;4989862;28;20465;-46
2024/02/04 13:02:09;;;;;;;1.20;0.50;;;9.10;99.90;;;;;;4962847;28;20552;-45
2024/02/04 13:04:39;;;;;;;1.67;0.60;;;9.20;99.90;;;;;;4987715;28;20488;-45
2024/02/04 13:07:09;;;;;;;1.13;0.60;;;9.20;99.90;;;;;;4986341;28;20458;-44
2024/02/04 13:09:39;;;;;;;1.67;0.60;;;9.10;99.90;;;;;;4989884;28;20445;-47
2024/02/04 13:12:10;;;;;;;1.00;0.50;;;9.20;99.90;;;;;;4969540;28;20466;-45